createdAt,value
2023-04-07T00:01:28.782Z,30.04
2023-04-07T00:03:56.930Z,30.06
2023-04-07T00:06:25.560Z,29.94
2023-04-07T00:08:53.548Z,29.98
2023-04-07T00:11:21.614Z,29.88
2023-04-07T00:13:49.636Z,29.75
2023-04-07T00:16:17.839Z,29.85
2023-04-07T00:18:45.787Z,29.79
2023-04-07T00:21:13.766Z,29.76
2023-04-07T00:23:42.973Z,29.67
2023-04-07T00:26:11.060Z,29.61
2023-04-07T00:28:40.265Z,29.57
2023-04-07T00:31:08.310Z,29.53
2023-04-07T00:33:36.310Z,29.52
2023-04-07T00:36:04.588Z,29.56
2023-04-07T00:38:32.406Z,29.50
2023-04-07T00:41:00.801Z,29.54
2023-04-07T00:43:28.711Z,29.48
2023-04-07T00:45:56.764Z,29.31
2023-04-07T00:48:24.782Z,29.33
2023-04-07T00:50:52.744Z,29.22
2023-04-07T00:53:20.980Z,29.32
2023-04-07T00:55:49.443Z,29.34
2023-04-07T00:58:17.310Z,29.20
2023-04-07T01:01:10.383Z,29.29
2023-04-07T01:03:46.941Z,29.18
2023-04-07T01:06:16.288Z,29.23
2023-04-07T01:08:52.416Z,29.12
2023-04-07T01:11:24.915Z,29.06
2023-04-07T01:13:54.527Z,29.06
2023-04-07T01:16:43.357Z,28.95
2023-04-07T01:19:41.248Z,28.93
2023-04-07T01:22:13.174Z,28.94
2023-04-07T01:25:12.523Z,28.97
2023-04-07T01:27:40.556Z,28.92
2023-04-07T01:30:12.836Z,28.85
2023-04-07T01:32:41.157Z,28.75
2023-04-07T01:35:13.209Z,28.73
2023-04-07T01:37:41.233Z,28.82
2023-04-07T01:40:09.534Z,28.92
2023-04-07T01:42:37.366Z,28.79
2023-04-07T01:45:06.030Z,28.89
2023-04-07T01:47:35.978Z,28.90
2023-04-07T01:50:05.531Z,28.96
2023-04-07T01:52:33.747Z,28.92
2023-04-07T01:55:03.974Z,28.95
2023-04-07T01:57:33.313Z,28.96
2023-04-07T02:00:06.657Z,28.86
2023-04-07T02:02:45.045Z,28.98
2023-04-07T02:05:14.209Z,29.06
2023-04-07T02:07:58.367Z,28.93
2023-04-07T02:10:27.202Z,28.96
2023-04-07T02:12:57.185Z,28.92
2023-04-07T02:15:25.490Z,29.02
2023-04-07T02:17:54.745Z,28.93
2023-04-07T02:20:23.137Z,28.95
2023-04-07T02:22:51.380Z,29.00
2023-04-07T02:25:29.135Z,28.93
2023-04-07T02:27:57.997Z,28.85
2023-04-07T02:30:27.579Z,28.86
2023-04-07T02:32:55.783Z,28.80
2023-04-07T02:35:23.905Z,28.92
2023-04-07T02:37:51.944Z,28.77
2023-04-07T02:40:19.945Z,28.74
2023-04-07T02:42:48.158Z,28.77
2023-04-07T02:45:16.159Z,28.73
2023-04-07T02:47:44.230Z,28.71
2023-04-07T02:50:12.316Z,28.70
2023-04-07T02:52:40.557Z,28.55
2023-04-07T02:55:12.307Z,28.45
2023-04-07T02:57:40.501Z,28.48
2023-04-07T03:00:14.557Z,28.42
2023-04-07T03:02:54.851Z,28.39
2023-04-07T03:05:23.262Z,28.38
2023-04-07T03:07:51.338Z,28.28
2023-04-07T03:10:19.355Z,28.27
2023-04-07T03:12:47.288Z,28.31
2023-04-07T03:15:17.096Z,28.42
2023-04-07T03:17:48.049Z,28.29
2023-04-07T03:20:17.650Z,28.25
2023-04-07T03:22:47.360Z,28.03
2023-04-07T03:25:21.715Z,28.18
2023-04-07T03:27:49.966Z,28.23
2023-04-07T03:30:18.338Z,28.14
2023-04-07T03:32:46.715Z,28.05
2023-04-07T03:35:14.870Z,28.11
2023-04-07T03:37:45.608Z,28.06
2023-04-07T03:40:16.979Z,28.00
2023-04-07T03:42:46.632Z,27.96
2023-04-07T03:45:14.833Z,28.03
2023-04-07T03:47:47.332Z,27.92
2023-04-07T03:50:15.970Z,27.86
2023-04-07T03:53:06.700Z,27.88
2023-04-07T03:55:35.306Z,27.83
2023-04-07T03:58:09.768Z,27.88
2023-04-07T04:00:37.825Z,27.87
2023-04-07T04:03:10.048Z,27.98
2023-04-07T04:05:42.270Z,27.93
2023-04-07T04:08:11.699Z,27.85
2023-04-07T04:10:40.653Z,27.81
2023-04-07T04:13:08.610Z,27.80
2023-04-07T04:15:36.776Z,27.87
2023-04-07T04:18:06.135Z,27.83
2023-04-07T04:20:34.544Z,27.87
2023-04-07T04:23:03.146Z,27.79
2023-04-07T04:25:31.431Z,27.81
2023-04-07T04:27:59.823Z,27.93
2023-04-07T04:30:27.923Z,27.84
2023-04-07T04:32:58.782Z,27.79
2023-04-07T04:35:45.770Z,27.87
2023-04-07T04:38:17.050Z,28.07
2023-04-07T04:40:49.650Z,28.16
2023-04-07T04:43:19.212Z,28.27
2023-04-07T04:45:47.666Z,28.24
2023-04-07T04:48:17.456Z,28.35
2023-04-07T04:50:45.537Z,28.46
2023-04-07T04:53:14.129Z,28.82
2023-04-07T04:55:56.059Z,29.17
2023-04-07T04:58:28.050Z,29.51
2023-04-07T05:00:58.412Z,29.81
2023-04-07T05:03:31.404Z,29.83
2023-04-07T05:06:01.504Z,30.05
2023-04-07T05:08:29.523Z,30.60
2023-04-07T05:10:57.915Z,30.65
2023-04-07T05:13:26.600Z,30.50
2023-04-07T05:15:54.806Z,30.54
2023-04-07T05:18:22.972Z,30.54
2023-04-07T05:20:51.166Z,30.24
2023-04-07T05:23:19.295Z,30.23
2023-04-07T05:25:49.010Z,30.45
2023-04-07T05:28:16.901Z,30.51
2023-04-07T05:30:45.389Z,30.79
2023-04-07T05:33:13.447Z,30.79
2023-04-07T05:35:50.062Z,30.56
2023-04-07T05:38:17.961Z,30.70
2023-04-07T05:40:47.172Z,30.75
2023-04-07T05:43:20.894Z,31.08
2023-04-07T05:45:48.926Z,31.08
2023-04-07T05:48:16.977Z,31.07
2023-04-07T05:50:46.052Z,30.98
2023-04-07T05:53:16.942Z,30.97
2023-04-07T05:55:44.940Z,30.92
2023-04-07T05:58:36.548Z,30.73
2023-04-07T06:01:04.734Z,30.73
2023-04-07T06:03:33.222Z,30.66
2023-04-07T06:06:11.465Z,30.55
2023-04-07T06:08:39.612Z,30.48
2023-04-07T06:11:07.672Z,30.36
2023-04-07T06:13:35.668Z,30.41
2023-04-07T06:16:04.699Z,30.36
2023-04-07T06:18:32.733Z,30.23
2023-04-07T06:21:00.863Z,30.21
2023-04-07T06:23:28.917Z,30.13
2023-04-07T06:25:56.908Z,30.13
2023-04-07T06:28:24.833Z,30.04
2023-04-07T06:30:55.561Z,29.97
2023-04-07T06:33:25.772Z,29.41
2023-04-07T06:35:53.868Z,28.67
2023-04-07T06:38:22.391Z,28.76
2023-04-07T06:40:51.480Z,28.79
2023-04-07T06:43:19.464Z,28.68
2023-04-07T06:45:55.259Z,28.67
2023-04-07T06:48:23.389Z,28.55
2023-04-07T06:50:51.797Z,28.52
2023-04-07T06:53:19.843Z,28.50
2023-04-07T06:55:47.994Z,28.59
2023-04-07T06:58:16.256Z,28.62
2023-04-07T07:00:44.177Z,28.50
2023-04-07T07:03:12.227Z,28.59
2023-04-07T07:05:40.595Z,28.47
2023-04-07T07:08:08.415Z,28.44
2023-04-07T07:10:36.520Z,28.47
2023-04-07T07:13:04.542Z,28.66
2023-04-07T07:15:32.571Z,28.73
2023-04-07T07:18:00.585Z,28.76
2023-04-07T07:20:28.595Z,28.60
2023-04-07T07:22:56.784Z,28.52
2023-04-07T07:25:26.861Z,28.37
2023-04-07T07:27:54.909Z,28.18
2023-04-07T07:30:23.379Z,28.22
2023-04-07T07:32:53.699Z,28.34
2023-04-07T07:35:22.518Z,28.38
2023-04-07T07:37:50.505Z,28.25
2023-04-07T07:40:18.579Z,28.20
2023-04-07T07:42:47.260Z,28.09
2023-04-07T07:45:16.140Z,28.18
2023-04-07T07:47:44.125Z,28.16
2023-04-07T07:50:12.500Z,28.12
2023-04-07T07:52:40.770Z,28.12
2023-04-07T07:55:09.216Z,28.13
2023-04-07T07:57:37.225Z,28.18
2023-04-07T08:00:06.069Z,28.17
2023-04-07T08:02:41.384Z,28.32
2023-04-07T08:05:09.531Z,28.29
2023-04-07T08:07:37.796Z,28.49
2023-04-07T08:10:06.503Z,28.54
2023-04-07T08:12:34.697Z,28.49
2023-04-07T08:15:02.871Z,28.52
2023-04-07T08:17:30.968Z,28.41
2023-04-07T08:19:58.946Z,28.52
2023-04-07T08:22:26.956Z,28.72
2023-04-07T08:24:55.019Z,28.69
2023-04-07T08:27:23.017Z,28.67
2023-04-07T08:30:05.259Z,28.65
2023-04-07T08:32:43.404Z,28.72
2023-04-07T08:35:11.687Z,28.82
2023-04-07T08:37:39.875Z,28.74
2023-04-07T08:40:08.048Z,28.84
2023-04-07T08:42:36.860Z,28.81
2023-04-07T08:45:06.424Z,28.70
2023-04-07T08:47:35.345Z,28.69
2023-04-07T08:50:05.393Z,28.90
2023-04-07T08:52:34.949Z,28.91
2023-04-07T08:55:03.647Z,28.84
2023-04-07T08:57:32.384Z,28.76
2023-04-07T09:00:05.886Z,28.68
2023-04-07T09:02:35.177Z,28.55
2023-04-07T09:05:04.025Z,28.49
2023-04-07T09:07:33.287Z,28.35
2023-04-07T09:10:04.043Z,28.42
2023-04-07T09:12:32.182Z,28.27
2023-04-07T09:15:00.463Z,28.39
2023-04-07T09:17:28.723Z,28.48
2023-04-07T09:19:57.527Z,28.43
2023-04-07T09:22:42.533Z,28.35
2023-04-07T09:25:20.618Z,28.45
2023-04-07T09:28:01.537Z,28.61
2023-04-07T09:30:30.399Z,28.52
2023-04-07T09:32:59.047Z,28.41
2023-04-07T09:35:28.598Z,28.40
2023-04-07T09:38:06.702Z,28.56
2023-04-07T09:40:35.113Z,28.46
2023-04-07T09:43:04.158Z,28.42
2023-04-07T09:45:35.203Z,28.48
2023-04-07T09:48:22.173Z,28.50
2023-04-07T09:50:51.829Z,28.57
2023-04-07T09:53:20.412Z,28.67
2023-04-07T09:55:48.309Z,28.68
2023-04-07T09:58:16.986Z,28.82
2023-04-07T10:00:45.104Z,28.80
2023-04-07T10:03:13.544Z,28.75
2023-04-07T10:05:41.524Z,28.60
2023-04-07T10:08:09.769Z,28.63
2023-04-07T10:10:41.018Z,28.87
2023-04-07T10:13:08.976Z,28.87
2023-04-07T10:15:37.099Z,28.83
2023-04-07T10:18:05.418Z,28.84
2023-04-07T10:20:33.290Z,28.90
2023-04-07T10:23:03.898Z,28.83
2023-04-07T10:25:31.893Z,28.73
2023-04-07T10:28:00.725Z,28.67
2023-04-07T10:30:30.250Z,28.74
2023-04-07T10:32:58.905Z,28.77
2023-04-07T10:35:27.109Z,28.82
2023-04-07T10:38:07.088Z,28.85
2023-04-07T10:40:35.941Z,28.77
2023-04-07T10:43:04.773Z,28.88
2023-04-07T10:45:54.464Z,28.74
2023-04-07T10:48:22.826Z,28.64
2023-04-07T10:51:06.168Z,28.65
2023-04-07T10:53:34.800Z,28.55
2023-04-07T10:56:02.927Z,28.67
2023-04-07T10:58:31.907Z,28.58
2023-04-07T11:01:00.530Z,28.60
2023-04-07T11:03:29.547Z,28.46
2023-04-07T11:06:11.103Z,28.45
2023-04-07T11:08:45.691Z,28.31
2023-04-07T11:11:17.288Z,28.35
2023-04-07T11:13:46.994Z,28.26
2023-04-07T11:16:16.595Z,28.35
2023-04-07T11:18:45.119Z,28.31
2023-04-07T11:21:19.872Z,28.33
2023-04-07T11:23:49.317Z,28.17
2023-04-07T11:26:17.670Z,28.15
2023-04-07T11:28:53.008Z,28.10
2023-04-07T11:31:31.691Z,28.27
2023-04-07T11:34:02.267Z,28.29
2023-04-07T11:36:34.712Z,28.18
2023-04-07T11:39:03.308Z,28.06
2023-04-07T11:41:32.868Z,28.05
2023-04-07T11:44:07.997Z,28.16
2023-04-07T11:46:36.928Z,28.15
2023-04-07T11:49:12.537Z,28.05
2023-04-07T11:51:43.881Z,28.07
2023-04-07T11:54:11.806Z,28.11
2023-04-07T11:56:46.755Z,28.09
2023-04-07T11:59:22.875Z,28.00
2023-04-07T12:01:51.903Z,28.11
2023-04-07T12:04:20.520Z,27.93
2023-04-07T12:06:48.614Z,27.90
2023-04-07T12:09:36.013Z,28.02
2023-04-07T12:12:06.372Z,27.97
2023-04-07T12:14:35.070Z,27.97
2023-04-07T12:17:04.009Z,27.92
2023-04-07T12:19:35.878Z,27.93
2023-04-07T12:22:04.364Z,28.00
2023-04-07T12:24:32.688Z,27.99
2023-04-07T12:27:00.712Z,27.86
2023-04-07T12:29:29.674Z,27.91
2023-04-07T12:31:57.811Z,27.91
2023-04-07T12:34:25.936Z,27.87
2023-04-07T12:36:54.016Z,27.87
2023-04-07T12:39:22.035Z,27.91
2023-04-07T12:41:53.305Z,27.92
2023-04-07T12:44:21.313Z,27.96
2023-04-07T12:46:49.487Z,27.84
2023-04-07T12:49:17.671Z,27.86
2023-04-07T12:51:46.097Z,27.95
2023-04-07T12:54:15.039Z,27.90
2023-04-07T12:56:43.035Z,27.93
2023-04-07T12:59:11.018Z,27.94
2023-04-07T13:01:39.526Z,27.92
2023-04-07T13:04:07.758Z,27.83
2023-04-07T13:06:36.010Z,27.84
2023-04-07T13:09:04.011Z,27.84
2023-04-07T13:11:31.985Z,27.86
2023-04-07T13:14:01.366Z,27.84
2023-04-07T13:16:29.665Z,27.87
2023-04-07T13:18:58.478Z,27.83
2023-04-07T13:21:45.146Z,27.68
2023-04-07T13:24:14.618Z,27.79
2023-04-07T13:26:42.621Z,27.73
2023-04-07T13:29:10.622Z,27.75
2023-04-07T13:31:38.606Z,27.74
2023-04-07T13:34:06.568Z,27.82
2023-04-07T13:36:34.685Z,27.79
2023-04-07T13:39:02.604Z,27.82
2023-04-07T13:41:30.697Z,27.76
2023-04-07T13:43:58.670Z,27.74
2023-04-07T13:46:28.876Z,27.78
2023-04-07T13:48:57.798Z,27.77
2023-04-07T13:51:25.868Z,27.79
2023-04-07T13:53:53.818Z,27.95
2023-04-07T13:56:22.557Z,27.87
2023-04-07T13:58:50.628Z,27.84
2023-04-07T14:01:18.922Z,27.90
2023-04-07T14:03:48.166Z,28.00
2023-04-07T14:06:16.448Z,28.18
2023-04-07T14:08:44.418Z,28.57
2023-04-07T14:11:12.280Z,28.72
2023-04-07T14:13:40.426Z,28.97
2023-04-07T14:16:08.451Z,29.00
2023-04-07T14:18:37.263Z,28.92
2023-04-07T14:21:06.177Z,29.06
2023-04-07T14:23:37.682Z,29.21
2023-04-07T14:26:06.174Z,29.29
2023-04-07T14:28:34.240Z,29.20
2023-04-07T14:31:02.272Z,29.35
2023-04-07T14:33:30.610Z,29.34
2023-04-07T14:35:58.690Z,29.59
2023-04-07T14:38:27.307Z,29.72
2023-04-07T14:40:55.466Z,29.69
2023-04-07T14:43:23.493Z,29.67
2023-04-07T14:45:52.140Z,29.64
2023-04-07T14:48:20.156Z,29.67
2023-04-07T14:50:50.187Z,29.81
2023-04-07T14:53:24.857Z,29.85
2023-04-07T14:55:52.791Z,29.90
2023-04-07T14:58:20.729Z,30.19
2023-04-07T15:00:48.954Z,30.16
2023-04-07T15:03:17.186Z,30.24
2023-04-07T15:05:45.469Z,30.23
2023-04-07T15:08:13.488Z,30.67
2023-04-07T15:10:41.537Z,30.89
2023-04-07T15:13:09.651Z,31.00
2023-04-07T15:15:37.804Z,31.06
2023-04-07T15:18:05.896Z,30.99
2023-04-07T15:20:33.845Z,30.85
2023-04-07T15:23:01.894Z,30.84
2023-04-07T15:25:29.872Z,30.91
2023-04-07T15:27:58.065Z,30.95
2023-04-07T15:30:26.103Z,30.95
2023-04-07T15:33:00.934Z,30.95
2023-04-07T15:35:28.912Z,31.01
2023-04-07T15:37:57.001Z,30.91
2023-04-07T15:40:25.114Z,30.83
2023-04-07T15:42:53.027Z,30.90
2023-04-07T15:45:21.161Z,30.86
2023-04-07T15:47:49.218Z,31.01
2023-04-07T15:50:17.334Z,31.02
2023-04-07T15:52:45.280Z,30.93
2023-04-07T15:55:13.294Z,30.91
2023-04-07T15:57:41.388Z,30.99
2023-04-07T16:00:09.746Z,30.89
2023-04-07T16:02:38.302Z,30.96
2023-04-07T16:05:08.054Z,30.98
2023-04-07T16:07:36.439Z,31.24
2023-04-07T16:10:08.181Z,31.71
2023-04-07T16:12:37.940Z,31.75
2023-04-07T16:15:11.235Z,32.01
2023-04-07T16:17:42.831Z,32.20
2023-04-07T16:20:16.840Z,32.27
2023-04-07T16:22:47.290Z,32.39
2023-04-07T16:25:16.192Z,32.43
2023-04-07T16:27:45.023Z,32.49
2023-04-07T16:30:14.006Z,32.84
2023-04-07T16:32:46.543Z,32.63
2023-04-07T16:35:14.923Z,32.59
2023-04-07T16:37:42.808Z,32.61
2023-04-07T16:40:11.024Z,32.57
2023-04-07T16:42:39.110Z,32.59
2023-04-07T16:45:07.623Z,32.63
2023-04-07T16:47:35.814Z,32.69
2023-04-07T16:50:06.588Z,32.70
2023-04-07T16:52:34.540Z,32.66
2023-04-07T16:55:02.686Z,32.82
2023-04-07T16:57:30.672Z,32.82
2023-04-07T16:59:59.210Z,32.90
2023-04-07T17:02:27.779Z,32.96
2023-04-07T17:04:56.118Z,32.92
2023-04-07T17:07:26.320Z,33.11
2023-04-07T17:09:54.379Z,33.30
2023-04-07T17:12:22.784Z,33.40
2023-04-07T17:14:50.832Z,33.49
2023-04-07T17:17:18.848Z,33.61
2023-04-07T17:19:46.827Z,33.56
2023-04-07T17:22:14.773Z,33.64
2023-04-07T17:24:42.783Z,33.70
2023-04-07T17:27:10.850Z,33.88
2023-04-07T17:29:38.992Z,33.76
2023-04-07T17:32:07.945Z,33.86
2023-04-07T17:34:36.090Z,33.92
2023-04-07T17:37:04.088Z,34.13
2023-04-07T17:39:31.990Z,34.09
2023-04-07T17:41:59.937Z,34.08
2023-04-07T17:44:27.849Z,33.99
2023-04-07T17:46:55.929Z,34.19
2023-04-07T17:49:25.005Z,34.28
2023-04-07T17:51:52.978Z,34.22
2023-04-07T17:54:20.929Z,34.43
2023-04-07T17:56:49.417Z,34.62
2023-04-07T17:59:17.408Z,34.55
2023-04-07T18:01:45.521Z,34.14
2023-04-07T18:04:14.732Z,34.10
2023-04-07T18:06:42.878Z,34.04
2023-04-07T18:09:10.898Z,33.92
2023-04-07T18:11:38.822Z,34.00
2023-04-07T18:14:06.739Z,33.75
2023-04-07T18:16:35.188Z,33.74
2023-04-07T18:19:03.297Z,33.71
2023-04-07T18:21:31.328Z,33.63
2023-04-07T18:23:59.763Z,33.56
2023-04-07T18:26:27.727Z,33.57
2023-04-07T18:28:55.895Z,33.42
2023-04-07T18:31:23.903Z,33.31
2023-04-07T18:33:52.171Z,33.14
2023-04-07T18:36:25.181Z,33.05
2023-04-07T18:38:53.291Z,32.95
2023-04-07T18:41:21.351Z,32.81
2023-04-07T18:43:49.818Z,32.68
2023-04-07T18:46:18.074Z,32.60
2023-04-07T18:48:46.100Z,32.52
2023-04-07T18:51:13.990Z,32.37
2023-04-07T18:53:42.137Z,32.34
2023-04-07T18:56:10.139Z,32.35
2023-04-07T18:58:43.984Z,32.35
2023-04-07T19:01:13.454Z,32.19
2023-04-07T19:03:42.021Z,32.18
2023-04-07T19:06:10.085Z,32.10
2023-04-07T19:08:38.029Z,32.02
2023-04-07T19:11:06.613Z,32.04
2023-04-07T19:13:34.963Z,31.89
2023-04-07T19:16:03.282Z,31.72
2023-04-07T19:18:31.902Z,31.68
2023-04-07T19:21:00.101Z,31.64
2023-04-07T19:23:28.051Z,31.57
2023-04-07T19:25:56.555Z,31.38
2023-04-07T19:28:24.529Z,31.45
2023-04-07T19:30:52.676Z,31.35
2023-04-07T19:33:20.723Z,31.30
2023-04-07T19:35:48.973Z,31.36
2023-04-07T19:38:17.001Z,31.18
2023-04-07T19:40:44.969Z,31.20
2023-04-07T19:43:14.199Z,31.13
2023-04-07T19:45:42.197Z,30.98
2023-04-07T19:48:11.283Z,30.98
2023-04-07T19:50:43.634Z,30.96
2023-04-07T19:53:16.235Z,30.93
2023-04-07T19:55:47.383Z,30.87
2023-04-07T19:58:21.023Z,30.70
2023-04-07T20:00:52.490Z,30.75
2023-04-07T20:03:20.799Z,30.85
2023-04-07T20:05:49.602Z,30.87
2023-04-07T20:08:17.534Z,30.71
2023-04-07T20:10:45.596Z,30.71
2023-04-07T20:13:13.605Z,30.52
2023-04-07T20:15:41.514Z,30.57
2023-04-07T20:18:11.092Z,30.54
2023-04-07T20:20:39.291Z,30.55
2023-04-07T20:23:07.319Z,30.51
2023-04-07T20:25:36.346Z,30.50
2023-04-07T20:28:04.234Z,30.37
2023-04-07T20:30:32.266Z,30.29
2023-04-07T20:33:00.673Z,30.31
2023-04-07T20:35:28.620Z,30.29
2023-04-07T20:37:56.494Z,30.27
2023-04-07T20:40:24.459Z,30.26
2023-04-07T20:42:52.588Z,30.18
2023-04-07T20:45:21.630Z,30.19
2023-04-07T20:47:50.117Z,30.17
2023-04-07T20:50:21.117Z,29.96
2023-04-07T20:52:49.245Z,29.95
2023-04-07T20:55:17.421Z,30.12
2023-04-07T20:57:45.251Z,30.14
2023-04-07T21:00:13.514Z,29.95
2023-04-07T21:02:42.832Z,29.95
2023-04-07T21:05:11.125Z,29.91
2023-04-07T21:07:39.232Z,29.90
2023-04-07T21:10:08.756Z,29.79
2023-04-07T21:12:38.059Z,29.72
2023-04-07T21:15:06.732Z,29.78
2023-04-07T21:17:34.888Z,29.76
2023-04-07T21:20:04.356Z,29.78
2023-04-07T21:22:32.281Z,29.68
2023-04-07T21:25:00.421Z,29.70
2023-04-07T21:27:29.584Z,29.57
2023-04-07T21:29:57.528Z,29.44
2023-04-07T21:32:25.765Z,29.66
2023-04-07T21:34:53.846Z,29.61
2023-04-07T21:37:23.112Z,29.52
2023-04-07T21:39:54.157Z,29.44
2023-04-07T21:42:22.562Z,29.47
2023-04-07T21:44:50.534Z,29.43
2023-04-07T21:47:18.497Z,29.34
2023-04-07T21:49:46.485Z,29.36
2023-04-07T21:52:15.983Z,29.31
2023-04-07T21:54:44.689Z,29.19
2023-04-07T21:57:15.543Z,29.19
2023-04-07T21:59:43.559Z,29.12
2023-04-07T22:02:12.848Z,29.20
2023-04-07T22:04:40.899Z,29.04
2023-04-07T22:07:08.938Z,28.95
2023-04-07T22:09:37.147Z,29.00
2023-04-07T22:12:05.067Z,28.94
2023-04-07T22:14:33.014Z,28.89
2023-04-07T22:17:01.087Z,28.95
2023-04-07T22:19:29.036Z,28.81
2023-04-07T22:21:56.980Z,28.81
2023-04-07T22:24:24.888Z,28.79
2023-04-07T22:26:53.997Z,28.66
2023-04-07T22:29:21.982Z,28.69
2023-04-07T22:31:50.025Z,28.60
2023-04-07T22:34:18.226Z,28.60
2023-04-07T22:36:46.368Z,28.54
2023-04-07T22:39:14.358Z,28.42
2023-04-07T22:41:42.316Z,28.46
2023-04-07T22:44:10.288Z,28.35
2023-04-07T22:46:38.322Z,28.38
2023-04-07T22:49:06.441Z,28.34
2023-04-07T22:51:35.194Z,28.28
2023-04-07T22:54:03.163Z,28.31
2023-04-07T22:56:31.274Z,28.24
2023-04-07T22:59:05.798Z,28.06
2023-04-07T23:01:34.456Z,28.12
2023-04-07T23:04:02.462Z,28.12
2023-04-07T23:06:31.492Z,28.12
2023-04-07T23:08:59.373Z,28.03
2023-04-07T23:11:27.376Z,28.08
2023-04-07T23:13:55.309Z,28.03
2023-04-07T23:16:23.345Z,27.95
2023-04-07T23:18:51.625Z,27.91
2023-04-07T23:21:20.106Z,27.84
2023-04-07T23:23:48.837Z,27.87
2023-04-07T23:26:16.812Z,27.81
2023-04-07T23:28:44.883Z,27.86
2023-04-07T23:31:12.836Z,27.99
2023-04-07T23:33:40.881Z,27.82
2023-04-07T23:36:08.861Z,27.86
2023-04-07T23:38:37.089Z,27.74
2023-04-07T23:41:05.039Z,27.78
2023-04-07T23:43:33.584Z,27.73
2023-04-07T23:46:02.444Z,27.76
2023-04-07T23:48:31.171Z,27.75
2023-04-07T23:51:02.007Z,27.61
2023-04-07T23:53:30.089Z,27.76
2023-04-07T23:55:58.004Z,27.79
2023-04-07T23:58:26.039Z,27.72
